»·PEaware :: N805RJ KHMT-KDAG

N805RJ :: KHMT-KDAG

FLIGHT INFORMATION

Flight Status: Arrived
Operator: Privately registered:
United States
More flights under this callsign
Pilot: Rickie J. (22768)
Aircraft: CESSNA 172 SKYHAWK
(C172)
More flights by this aircraft type
Origin: KHMT Hemet-Ryan
United States
Destination: KDAG Barstow-Daggett
United States
More flights between these airports :: More routes between these airports
Route: WESIN PERIS HDF ACINS V587 BULGY
File this flight plan on PilotEdge
Remarks:
Altitude:
(Current/Filed)
11,500ft
Speed:
(Current/Filed)
120kts
Departed: 10-Jul-20 05:55 PM
Arrived: 10-Jul-20 06:48 PM
Distance/Time
Traveled:
68nm/0:53
Distance/Time
To Go:
Arrived

Flight Plot

Page will automatically refresh every two minutes.

Flight plan parsing failed; only flown route is shown


Map Options




Map Legend


Flown Route
Filed Route
Departure Airport
Arrival Airport
Navaid (VOR, NDB)
Fix

Horizontal Profiles

Position Reports

Time Latitude Longitude Heading Altitude Ground
Speed
10-Jul-20 17:27 33.731168 -117.019063 248 1516ft 0kts
10-Jul-20 17:28 33.731168 -117.019063 248 1516ft 0kts
10-Jul-20 17:30 33.731168 -117.019063 248 1516ft 0kts
10-Jul-20 17:31 33.731168 -117.019063 248 1516ft 0kts
10-Jul-20 17:32 33.731168 -117.019063 248 1516ft 0kts
10-Jul-20 17:33 33.731168 -117.019063 248 1516ft 0kts
10-Jul-20 17:34 33.731168 -117.019063 248 1516ft 0kts
10-Jul-20 17:35 33.731168 -117.019063 248 1516ft 0kts
10-Jul-20 17:36 33.731168 -117.019063 248 1516ft 0kts
10-Jul-20 17:37 33.731168 -117.019063 248 1516ft 0kts
10-Jul-20 17:38 33.731168 -117.019063 248 1516ft 0kts
10-Jul-20 17:39 33.731168 -117.019063 248 1516ft 0kts
10-Jul-20 17:40 33.731168 -117.019063 248 1516ft 0kts
10-Jul-20 17:41 33.731168 -117.019063 248 1516ft 0kts
10-Jul-20 17:42 33.731168 -117.019063 248 1516ft 0kts
10-Jul-20 17:43 33.731168 -117.019063 248 1516ft 0kts
10-Jul-20 17:44 33.731168 -117.019063 248 1516ft 0kts
10-Jul-20 17:44 33.731168 -117.019063 248 1516ft 0kts
10-Jul-20 17:46 33.731259 -117.019403 333 1516ft 2kts
10-Jul-20 17:47 33.732405 -117.020069 337 1516ft 5kts
10-Jul-20 17:47 33.733720 -117.020391 58 1516ft 7kts
10-Jul-20 17:49 33.735086 -117.017201 61 1516ft 10kts
10-Jul-20 17:49 33.735262 -117.016335 26 1516ft 0kts
10-Jul-20 17:50 33.735262 -117.016335 26 1516ft 0kts
10-Jul-20 17:52 33.735378 -117.016326 356 1516ft 1kts
10-Jul-20 17:52 33.735557 -117.016334 0 1516ft 1kts
10-Jul-20 17:53 33.735952 -117.016967 243 1516ft 10kts
10-Jul-20 17:54 33.725861 -117.040042 242 1806ft 100kts
10-Jul-20 17:55 33.711472 -117.067634 240 2595ft 94kts
10-Jul-20 17:56 33.697497 -117.093854 240 3337ft 93kts
10-Jul-20 17:57 33.676690 -117.111088 204 4039ft 95kts
10-Jul-20 17:58 33.654860 -117.131272 226 4649ft 103kts
10-Jul-20 17:59 33.635447 -117.156890 228 5249ft 104kts
10-Jul-20 18:00 33.616419 -117.182736 228 5847ft 103kts
10-Jul-20 18:01 33.597615 -117.208318 227 6441ft 102kts
10-Jul-20 18:02 33.579992 -117.234029 252 7034ft 103kts
10-Jul-20 18:03 33.599057 -117.243908 42 7553ft 108kts
10-Jul-20 18:04 33.624320 -117.227364 16 8032ft 111kts
10-Jul-20 18:05 33.652603 -117.218190 13 8457ft 115kts
10-Jul-20 18:06 33.682964 -117.209117 14 8843ft 118kts
10-Jul-20 18:07 33.714216 -117.199846 13 9236ft 119kts
10-Jul-20 18:08 33.746061 -117.192361 11 9634ft 119kts
10-Jul-20 18:09 33.778583 -117.185230 8 10037ft 119kts
10-Jul-20 18:10 33.807173 -117.180906 7 10388ft 119kts
10-Jul-20 18:11 33.838806 -117.176213 9 10501ft 133kts
10-Jul-20 18:12 33.871296 -117.171407 7 10501ft 139kts
10-Jul-20 18:13 33.901774 -117.166880 8 10501ft 141kts
10-Jul-20 18:14 33.932598 -117.162439 7 10503ft 141kts
10-Jul-20 18:15 33.961831 -117.158094 6 10504ft 142kts
10-Jul-20 18:16 33.988069 -117.154200 8 10506ft 142kts
10-Jul-20 18:17 34.017916 -117.149815 7 10583ft 137kts
10-Jul-20 18:18 34.052410 -117.144719 7 10818ft 131kts
10-Jul-20 18:19 34.087467 -117.139506 7 10737ft 147kts
10-Jul-20 18:20 34.125312 -117.133903 7 10500ft 146kts
10-Jul-20 18:21 34.166039 -117.127863 7 10504ft 142kts
10-Jul-20 18:22 34.206536 -117.121854 7 10504ft 142kts
10-Jul-20 18:23 34.247023 -117.115910 7 10503ft 142kts
10-Jul-20 18:24 34.280843 -117.092508 45 10462ft 142kts
10-Jul-20 18:25 34.311602 -117.056594 46 10051ft 150kts
10-Jul-20 18:26 34.342322 -117.019551 47 9637ft 150kts
10-Jul-20 18:27 34.370936 -116.984833 47 9243ft 150kts
10-Jul-20 18:28 34.399320 -116.950277 46 8860ft 150kts
10-Jul-20 18:29 34.428269 -116.914988 46 8467ft 150kts
10-Jul-20 18:30 34.457622 -116.879237 45 8075ft 151kts
10-Jul-20 18:31 34.487592 -116.842693 45 7667ft 150kts
10-Jul-20 18:32 34.517906 -116.805691 45 7256ft 150kts
10-Jul-20 18:33 34.548121 -116.768767 44 6848ft 150kts
10-Jul-20 18:34 34.579187 -116.730767 44 6431ft 150kts
10-Jul-20 18:35 34.610025 -116.692983 43 6012ft 149kts
10-Jul-20 18:36 34.643434 -116.664929 348 5584ft 146kts
10-Jul-20 18:37 34.682480 -116.679515 343 5499ft 136kts
10-Jul-20 18:38 34.719725 -116.693704 343 5488ft 127kts
10-Jul-20 18:39 34.752411 -116.706715 342 5475ft 112kts
10-Jul-20 18:40 34.782369 -116.722430 326 5357ft 124kts
10-Jul-20 18:41 34.809476 -116.745242 326 4612ft 110kts
10-Jul-20 18:42 34.833806 -116.766429 326 3848ft 99kts
10-Jul-20 18:43 34.854782 -116.784988 320 3050ft 90kts
10-Jul-20 18:44 34.861283 -116.806321 229 2817ft 77kts
10-Jul-20 18:45 34.844355 -116.817670 144 2607ft 76kts
10-Jul-20 18:46 34.848899 -116.797285 48 2188ft 71kts
10-Jul-20 18:47 34.857062 -116.785222 38 1929ft 4kts
10-Jul-20 18:48 34.857709 -116.785477 321 1929ft 0kts
10-Jul-20 18:49 34.858243 -116.786030 317 1929ft 6kts
10-Jul-20 18:50 34.857261 -116.788277 229 1929ft 10kts
10-Jul-20 18:51 34.855813 -116.790755 313 1929ft 6kts
10-Jul-20 18:52 34.856426 -116.791253 116 1929ft 0kts
10-Jul-20 18:53 34.856424 -116.791217 91 1929ft 0kts
10-Jul-20 18:54 34.856424 -116.791217 92 1929ft 0kts
10-Jul-20 18:55 34.856424 -116.791217 92 1929ft 0kts
10-Jul-20 18:56 34.856424 -116.791217 92 1929ft 0kts

Navigation Log

Ident Type
Flight plan parsing failed, navigation log unavailable